sensor_id;sensor_type;location;lat;lon;timestamp;P1;durP1;ratioP1;P2;durP2;ratioP2
38693;SDS011;24447;43.460;25.744;2023-05-20T00:01:25;26.13;;;9.80;;
38693;SDS011;24447;43.460;25.744;2023-05-20T00:03:51;21.38;;;9.93;;
38693;SDS011;24447;43.460;25.744;2023-05-20T00:06:17;29.55;;;11.35;;
38693;SDS011;24447;43.460;25.744;2023-05-20T00:08:43;23.48;;;9.65;;
38693;SDS011;24447;43.460;25.744;2023-05-20T00:11:09;24.58;;;11.23;;
38693;SDS011;24447;43.460;25.744;2023-05-20T00:13:35;22.42;;;9.85;;
38693;SDS011;24447;43.460;25.744;2023-05-20T00:16:01;20.83;;;9.18;;
38693;SDS011;24447;43.460;25.744;2023-05-20T00:18:27;23.30;;;9.90;;
38693;SDS011;24447;43.460;25.744;2023-05-20T00:20:53;23.80;;;10.25;;
38693;SDS011;24447;43.460;25.744;2023-05-20T00:23:19;20.83;;;8.30;;
38693;SDS011;24447;43.460;25.744;2023-05-20T00:25:45;23.33;;;10.30;;
38693;SDS011;24447;43.460;25.744;2023-05-20T00:28:11;28.50;;;9.88;;
38693;SDS011;24447;43.460;25.744;2023-05-20T00:30:40;21.90;;;9.40;;
38693;SDS011;24447;43.460;25.744;2023-05-20T00:33:06;20.30;;;9.10;;
38693;SDS011;24447;43.460;25.744;2023-05-20T00:35:32;27.20;;;11.50;;
38693;SDS011;24447;43.460;25.744;2023-05-20T00:37:58;22.45;;;9.98;;
38693;SDS011;24447;43.460;25.744;2023-05-20T00:40:24;24.70;;;11.18;;
38693;SDS011;24447;43.460;25.744;2023-05-20T00:42:50;24.65;;;11.10;;
38693;SDS011;24447;43.460;25.744;2023-05-20T00:45:16;21.80;;;9.63;;
38693;SDS011;24447;43.460;25.744;2023-05-20T00:47:42;27.10;;;11.25;;
38693;SDS011;24447;43.460;25.744;2023-05-20T00:50:08;24.88;;;10.32;;
38693;SDS011;24447;43.460;25.744;2023-05-20T00:52:35;24.00;;;9.35;;
38693;SDS011;24447;43.460;25.744;2023-05-20T00:55:01;26.40;;;10.32;;
38693;SDS011;24447;43.460;25.744;2023-05-20T00:57:27;26.60;;;11.18;;
38693;SDS011;24447;43.460;25.744;2023-05-20T00:59:53;21.50;;;10.10;;
38693;SDS011;24447;43.460;25.744;2023-05-20T01:02:19;23.80;;;9.63;;
38693;SDS011;24447;43.460;25.744;2023-05-20T01:04:45;22.65;;;9.25;;
38693;SDS011;24447;43.460;25.744;2023-05-20T01:07:15;28.20;;;10.40;;
38693;SDS011;24447;43.460;25.744;2023-05-20T01:09:42;28.20;;;11.32;;
38693;SDS011;24447;43.460;25.744;2023-05-20T01:15:20;24.02;;;9.50;;
38693;SDS011;24447;43.460;25.744;2023-05-20T01:17:30;25.33;;;10.07;;
38693;SDS011;24447;43.460;25.744;2023-05-20T01:19:57;21.48;;;9.60;;
38693;SDS011;24447;43.460;25.744;2023-05-20T01:22:25;24.92;;;10.23;;
38693;SDS011;24447;43.460;25.744;2023-05-20T01:24:51;33.97;;;10.02;;
38693;SDS011;24447;43.460;25.744;2023-05-20T01:27:18;25.88;;;10.25;;
38693;SDS011;24447;43.460;25.744;2023-05-20T01:29:45;23.60;;;10.35;;
38693;SDS011;24447;43.460;25.744;2023-05-20T01:35:02;22.40;;;9.45;;
38693;SDS011;24447;43.460;25.744;2023-05-20T01:37:29;28.15;;;9.00;;
38693;SDS011;24447;43.460;25.744;2023-05-20T01:39:56;23.20;;;9.98;;
38693;SDS011;24447;43.460;25.744;2023-05-20T01:42:22;22.30;;;10.00;;
38693;SDS011;24447;43.460;25.744;2023-05-20T01:44:48;23.48;;;10.13;;
38693;SDS011;24447;43.460;25.744;2023-05-20T01:47:14;27.92;;;9.02;;
38693;SDS011;24447;43.460;25.744;2023-05-20T01:49:40;22.50;;;10.15;;
38693;SDS011;24447;43.460;25.744;2023-05-20T01:52:06;24.90;;;10.23;;
38693;SDS011;24447;43.460;25.744;2023-05-20T01:54:32;23.98;;;9.73;;
38693;SDS011;24447;43.460;25.744;2023-05-20T01:56:58;31.38;;;10.70;;
38693;SDS011;24447;43.460;25.744;2023-05-20T01:59:24;24.30;;;9.90;;
38693;SDS011;24447;43.460;25.744;2023-05-20T02:01:50;21.90;;;9.70;;
38693;SDS011;24447;43.460;25.744;2023-05-20T02:04:15;23.42;;;9.75;;
38693;SDS011;24447;43.460;25.744;2023-05-20T02:06:43;21.10;;;9.02;;
38693;SDS011;24447;43.460;25.744;2023-05-20T02:09:09;22.65;;;10.18;;
38693;SDS011;24447;43.460;25.744;2023-05-20T02:11:35;26.67;;;9.98;;
38693;SDS011;24447;43.460;25.744;2023-05-20T02:14:01;20.08;;;9.00;;
38693;SDS011;24447;43.460;25.744;2023-05-20T02:16:27;26.40;;;10.23;;
38693;SDS011;24447;43.460;25.744;2023-05-20T02:18:53;22.48;;;10.23;;
38693;SDS011;24447;43.460;25.744;2023-05-20T02:21:19;23.10;;;10.10;;
38693;SDS011;24447;43.460;25.744;2023-05-20T02:23:46;25.42;;;9.98;;
38693;SDS011;24447;43.460;25.744;2023-05-20T02:26:12;22.00;;;9.85;;
38693;SDS011;24447;43.460;25.744;2023-05-20T02:28:38;25.58;;;9.52;;
38693;SDS011;24447;43.460;25.744;2023-05-20T02:31:07;25.52;;;10.32;;
38693;SDS011;24447;43.460;25.744;2023-05-20T02:33:33;23.58;;;9.90;;
38693;SDS011;24447;43.460;25.744;2023-05-20T02:35:59;25.75;;;10.35;;
38693;SDS011;24447;43.460;25.744;2023-05-20T02:38:25;26.20;;;11.30;;
38693;SDS011;24447;43.460;25.744;2023-05-20T02:40:51;24.73;;;11.23;;
38693;SDS011;24447;43.460;25.744;2023-05-20T02:43:16;27.50;;;10.25;;
38693;SDS011;24447;43.460;25.744;2023-05-20T02:45:42;28.23;;;10.18;;
38693;SDS011;24447;43.460;25.744;2023-05-20T02:48:08;25.83;;;10.77;;
38693;SDS011;24447;43.460;25.744;2023-05-20T02:50:37;25.67;;;9.77;;
38693;SDS011;24447;43.460;25.744;2023-05-20T02:53:04;22.73;;;9.73;;
38693;SDS011;24447;43.460;25.744;2023-05-20T02:55:32;29.63;;;11.68;;
38693;SDS011;24447;43.460;25.744;2023-05-20T02:57:59;34.33;;;13.60;;
38693;SDS011;24447;43.460;25.744;2023-05-20T03:00:25;28.15;;;11.15;;
38693;SDS011;24447;43.460;25.744;2023-05-20T03:02:54;30.52;;;11.02;;
38693;SDS011;24447;43.460;25.744;2023-05-20T03:05:20;26.55;;;11.77;;
38693;SDS011;24447;43.460;25.744;2023-05-20T03:07:46;28.40;;;12.50;;
38693;SDS011;24447;43.460;25.744;2023-05-20T03:10:13;29.83;;;10.80;;
38693;SDS011;24447;43.460;25.744;2023-05-20T03:12:40;24.48;;;10.48;;
38693;SDS011;24447;43.460;25.744;2023-05-20T03:15:06;21.08;;;10.30;;
38693;SDS011;24447;43.460;25.744;2023-05-20T03:17:33;25.83;;;10.20;;
38693;SDS011;24447;43.460;25.744;2023-05-20T03:19:59;21.52;;;9.13;;
38693;SDS011;24447;43.460;25.744;2023-05-20T03:22:25;27.60;;;11.27;;
38693;SDS011;24447;43.460;25.744;2023-05-20T03:24:51;29.40;;;10.25;;
38693;SDS011;24447;43.460;25.744;2023-05-20T03:27:17;20.88;;;10.32;;
38693;SDS011;24447;43.460;25.744;2023-05-20T03:29:43;22.73;;;9.52;;
38693;SDS011;24447;43.460;25.744;2023-05-20T03:32:09;21.92;;;10.50;;
38693;SDS011;24447;43.460;25.744;2023-05-20T03:34:35;24.05;;;10.13;;
38693;SDS011;24447;43.460;25.744;2023-05-20T03:37:02;20.42;;;9.13;;
38693;SDS011;24447;43.460;25.744;2023-05-20T03:39:28;27.35;;;11.88;;
38693;SDS011;24447;43.460;25.744;2023-05-20T03:41:53;25.23;;;10.70;;
38693;SDS011;24447;43.460;25.744;2023-05-20T03:44:19;23.83;;;10.65;;
38693;SDS011;24447;43.460;25.744;2023-05-20T03:46:45;22.92;;;10.32;;
38693;SDS011;24447;43.460;25.744;2023-05-20T03:49:11;25.02;;;10.02;;
38693;SDS011;24447;43.460;25.744;2023-05-20T03:51:37;25.40;;;9.45;;
38693;SDS011;24447;43.460;25.744;2023-05-20T03:54:03;24.15;;;9.90;;
38693;SDS011;24447;43.460;25.744;2023-05-20T03:56:29;22.02;;;10.95;;
38693;SDS011;24447;43.460;25.744;2023-05-20T03:58:55;25.08;;;12.23;;
38693;SDS011;24447;43.460;25.744;2023-05-20T04:01:21;24.75;;;10.77;;
38693;SDS011;24447;43.460;25.744;2023-05-20T04:03:49;30.02;;;10.38;;
38693;SDS011;24447;43.460;25.744;2023-05-20T04:06:15;24.25;;;10.63;;
38693;SDS011;24447;43.460;25.744;2023-05-20T04:08:41;27.63;;;11.63;;
38693;SDS011;24447;43.460;25.744;2023-05-20T04:11:07;25.80;;;13.05;;
38693;SDS011;24447;43.460;25.744;2023-05-20T04:13:33;29.42;;;12.13;;
38693;SDS011;24447;43.460;25.744;2023-05-20T04:15:59;26.67;;;10.82;;
38693;SDS011;24447;43.460;25.744;2023-05-20T04:18:26;25.67;;;11.27;;
38693;SDS011;24447;43.460;25.744;2023-05-20T04:20:55;23.13;;;11.00;;
38693;SDS011;24447;43.460;25.744;2023-05-20T04:23:23;29.33;;;11.70;;
38693;SDS011;24447;43.460;25.744;2023-05-20T04:25:49;21.83;;;9.57;;
38693;SDS011;24447;43.460;25.744;2023-05-20T04:28:15;22.55;;;9.23;;
38693;SDS011;24447;43.460;25.744;2023-05-20T04:30:41;26.13;;;11.57;;
38693;SDS011;24447;43.460;25.744;2023-05-20T04:33:09;25.80;;;10.52;;
38693;SDS011;24447;43.460;25.744;2023-05-20T04:35:35;25.33;;;11.63;;
38693;SDS011;24447;43.460;25.744;2023-05-20T04:38:02;21.50;;;10.35;;
38693;SDS011;24447;43.460;25.744;2023-05-20T04:40:28;23.30;;;11.38;;
38693;SDS011;24447;43.460;25.744;2023-05-20T04:42:53;22.88;;;10.45;;
38693;SDS011;24447;43.460;25.744;2023-05-20T04:45:19;25.80;;;11.55;;
38693;SDS011;24447;43.460;25.744;2023-05-20T04:47:47;25.75;;;11.25;;
38693;SDS011;24447;43.460;25.744;2023-05-20T04:50:13;31.73;;;9.35;;
38693;SDS011;24447;43.460;25.744;2023-05-20T04:52:39;23.70;;;9.82;;
38693;SDS011;24447;43.460;25.744;2023-05-20T04:55:10;23.20;;;8.38;;
38693;SDS011;24447;43.460;25.744;2023-05-20T04:57:37;23.55;;;10.88;;
38693;SDS011;24447;43.460;25.744;2023-05-20T05:00:15;24.42;;;10.50;;
38693;SDS011;24447;43.460;25.744;2023-05-20T05:02:41;22.95;;;9.52;;
38693;SDS011;24447;43.460;25.744;2023-05-20T05:05:07;21.35;;;9.50;;
38693;SDS011;24447;43.460;25.744;2023-05-20T05:07:33;24.65;;;10.70;;
38693;SDS011;24447;43.460;25.744;2023-05-20T05:09:59;22.10;;;10.40;;
38693;SDS011;24447;43.460;25.744;2023-05-20T05:12:25;22.02;;;10.10;;
38693;SDS011;24447;43.460;25.744;2023-05-20T05:14:51;21.77;;;10.02;;
38693;SDS011;24447;43.460;25.744;2023-05-20T05:17:17;19.65;;;8.75;;
38693;SDS011;24447;43.460;25.744;2023-05-20T05:19:43;18.15;;;7.60;;
38693;SDS011;24447;43.460;25.744;2023-05-20T05:22:09;21.92;;;9.75;;
38693;SDS011;24447;43.460;25.744;2023-05-20T05:24:35;22.90;;;10.45;;
38693;SDS011;24447;43.460;25.744;2023-05-20T05:27:01;22.00;;;9.95;;
38693;SDS011;24447;43.460;25.744;2023-05-20T05:29:26;19.15;;;9.65;;
38693;SDS011;24447;43.460;25.744;2023-05-20T05:31:52;23.80;;;10.57;;
38693;SDS011;24447;43.460;25.744;2023-05-20T05:34:18;23.02;;;9.77;;
38693;SDS011;24447;43.460;25.744;2023-05-20T05:36:44;20.13;;;9.65;;
38693;SDS011;24447;43.460;25.744;2023-05-20T05:39:10;28.17;;;10.75;;
38693;SDS011;24447;43.460;25.744;2023-05-20T05:41:36;22.58;;;8.85;;
38693;SDS011;24447;43.460;25.744;2023-05-20T05:44:03;21.00;;;8.13;;
38693;SDS011;24447;43.460;25.744;2023-05-20T05:46:29;23.27;;;8.23;;
38693;SDS011;24447;43.460;25.744;2023-05-20T05:48:56;23.90;;;7.57;;
38693;SDS011;24447;43.460;25.744;2023-05-20T05:51:22;20.70;;;9.40;;
38693;SDS011;24447;43.460;25.744;2023-05-20T05:53:51;22.25;;;8.43;;
38693;SDS011;24447;43.460;25.744;2023-05-20T05:56:17;24.00;;;8.48;;
38693;SDS011;24447;43.460;25.744;2023-05-20T05:58:43;16.88;;;8.32;;
38693;SDS011;24447;43.460;25.744;2023-05-20T06:01:11;19.13;;;8.93;;
38693;SDS011;24447;43.460;25.744;2023-05-20T06:03:38;27.60;;;8.85;;
38693;SDS011;24447;43.460;25.744;2023-05-20T06:06:03;20.23;;;8.95;;
38693;SDS011;24447;43.460;25.744;2023-05-20T06:08:29;22.98;;;8.82;;
38693;SDS011;24447;43.460;25.744;2023-05-20T06:10:55;19.05;;;8.48;;
38693;SDS011;24447;43.460;25.744;2023-05-20T06:13:21;20.10;;;8.45;;
38693;SDS011;24447;43.460;25.744;2023-05-20T06:15:50;20.05;;;8.13;;
38693;SDS011;24447;43.460;25.744;2023-05-20T06:18:17;20.23;;;8.18;;
38693;SDS011;24447;43.460;25.744;2023-05-20T06:20:43;23.50;;;10.13;;
38693;SDS011;24447;43.460;25.744;2023-05-20T06:23:09;22.50;;;9.18;;
38693;SDS011;24447;43.460;25.744;2023-05-20T06:25:35;20.40;;;9.07;;
38693;SDS011;24447;43.460;25.744;2023-05-20T06:28:01;19.20;;;9.15;;
38693;SDS011;24447;43.460;25.744;2023-05-20T06:30:27;22.20;;;9.18;;
38693;SDS011;24447;43.460;25.744;2023-05-20T06:32:53;22.35;;;10.02;;
38693;SDS011;24447;43.460;25.744;2023-05-20T06:35:19;20.23;;;9.32;;
38693;SDS011;24447;43.460;25.744;2023-05-20T06:37:45;20.40;;;9.05;;
38693;SDS011;24447;43.460;25.744;2023-05-20T06:40:11;24.08;;;9.85;;
38693;SDS011;24447;43.460;25.744;2023-05-20T06:42:37;20.38;;;9.32;;
38693;SDS011;24447;43.460;25.744;2023-05-20T06:45:03;24.20;;;9.82;;
38693;SDS011;24447;43.460;25.744;2023-05-20T06:47:29;24.70;;;9.55;;
38693;SDS011;24447;43.460;25.744;2023-05-20T06:49:55;22.40;;;9.68;;
38693;SDS011;24447;43.460;25.744;2023-05-20T06:52:21;22.05;;;10.55;;
38693;SDS011;24447;43.460;25.744;2023-05-20T06:54:47;22.55;;;8.63;;
38693;SDS011;24447;43.460;25.744;2023-05-20T06:57:12;21.95;;;9.13;;
38693;SDS011;24447;43.460;25.744;2023-05-20T06:59:38;18.80;;;7.88;;
38693;SDS011;24447;43.460;25.744;2023-05-20T07:02:05;19.77;;;8.45;;
38693;SDS011;24447;43.460;25.744;2023-05-20T07:04:31;17.23;;;7.28;;
38693;SDS011;24447;43.460;25.744;2023-05-20T07:06:57;20.90;;;8.68;;
38693;SDS011;24447;43.460;25.744;2023-05-20T07:09:23;22.23;;;8.90;;
38693;SDS011;24447;43.460;25.744;2023-05-20T07:11:49;19.88;;;8.48;;
38693;SDS011;24447;43.460;25.744;2023-05-20T07:14:15;17.73;;;7.82;;
38693;SDS011;24447;43.460;25.744;2023-05-20T07:16:41;18.92;;;8.77;;
38693;SDS011;24447;43.460;25.744;2023-05-20T07:19:07;20.52;;;8.93;;
38693;SDS011;24447;43.460;25.744;2023-05-20T07:21:33;20.52;;;9.15;;
38693;SDS011;24447;43.460;25.744;2023-05-20T07:23:59;24.00;;;10.10;;
38693;SDS011;24447;43.460;25.744;2023-05-20T07:26:24;23.42;;;9.38;;
38693;SDS011;24447;43.460;25.744;2023-05-20T07:28:50;19.27;;;8.93;;
38693;SDS011;24447;43.460;25.744;2023-05-20T07:31:16;23.05;;;8.40;;
38693;SDS011;24447;43.460;25.744;2023-05-20T07:33:42;25.27;;;10.80;;
38693;SDS011;24447;43.460;25.744;2023-05-20T07:36:08;20.88;;;9.98;;
38693;SDS011;24447;43.460;25.744;2023-05-20T07:38:34;22.98;;;9.45;;
38693;SDS011;24447;43.460;25.744;2023-05-20T07:41:01;21.58;;;8.82;;
38693;SDS011;24447;43.460;25.744;2023-05-20T07:43:27;24.63;;;11.13;;
38693;SDS011;24447;43.460;25.744;2023-05-20T07:45:53;25.02;;;12.60;;
38693;SDS011;24447;43.460;25.744;2023-05-20T07:48:19;39.10;;;13.10;;
38693;SDS011;24447;43.460;25.744;2023-05-20T07:50:45;26.08;;;14.00;;
38693;SDS011;24447;43.460;25.744;2023-05-20T07:53:11;24.40;;;12.55;;
38693;SDS011;24447;43.460;25.744;2023-05-20T07:55:36;32.38;;;12.25;;
38693;SDS011;24447;43.460;25.744;2023-05-20T07:58:03;23.75;;;10.88;;
38693;SDS011;24447;43.460;25.744;2023-05-20T08:00:29;22.05;;;10.38;;
38693;SDS011;24447;43.460;25.744;2023-05-20T08:02:55;21.27;;;9.15;;
38693;SDS011;24447;43.460;25.744;2023-05-20T08:05:21;18.58;;;8.50;;
38693;SDS011;24447;43.460;25.744;2023-05-20T08:07:47;23.13;;;9.18;;
38693;SDS011;24447;43.460;25.744;2023-05-20T08:10:13;21.52;;;8.48;;
38693;SDS011;24447;43.460;25.744;2023-05-20T08:12:39;22.77;;;9.35;;
38693;SDS011;24447;43.460;25.744;2023-05-20T08:15:05;22.10;;;9.18;;
38693;SDS011;24447;43.460;25.744;2023-05-20T08:17:31;20.70;;;9.57;;
38693;SDS011;24447;43.460;25.744;2023-05-20T08:19:59;20.45;;;8.93;;
38693;SDS011;24447;43.460;25.744;2023-05-20T08:22:25;19.20;;;9.20;;
38693;SDS011;24447;43.460;25.744;2023-05-20T08:24:51;22.80;;;9.50;;
38693;SDS011;24447;43.460;25.744;2023-05-20T08:27:17;25.02;;;9.98;;
38693;SDS011;24447;43.460;25.744;2023-05-20T08:29:45;28.38;;;13.82;;
38693;SDS011;24447;43.460;25.744;2023-05-20T08:32:11;22.75;;;9.85;;
38693;SDS011;24447;43.460;25.744;2023-05-20T08:34:37;30.13;;;12.57;;
38693;SDS011;24447;43.460;25.744;2023-05-20T08:37:04;32.22;;;13.75;;
38693;SDS011;24447;43.460;25.744;2023-05-20T08:39:30;22.27;;;9.85;;
38693;SDS011;24447;43.460;25.744;2023-05-20T08:41:56;20.83;;;9.88;;
38693;SDS011;24447;43.460;25.744;2023-05-20T08:44:23;22.65;;;10.25;;
38693;SDS011;24447;43.460;25.744;2023-05-20T08:46:49;24.83;;;11.40;;
38693;SDS011;24447;43.460;25.744;2023-05-20T08:49:15;23.05;;;9.68;;
38693;SDS011;24447;43.460;25.744;2023-05-20T08:51:41;25.75;;;10.75;;
38693;SDS011;24447;43.460;25.744;2023-05-20T08:54:07;29.42;;;13.95;;
38693;SDS011;24447;43.460;25.744;2023-05-20T08:56:34;30.17;;;14.98;;
38693;SDS011;24447;43.460;25.744;2023-05-20T08:59:00;26.58;;;12.90;;
38693;SDS011;24447;43.460;25.744;2023-05-20T09:01:26;31.17;;;14.38;;
38693;SDS011;24447;43.460;25.744;2023-05-20T09:03:52;33.08;;;17.10;;
38693;SDS011;24447;43.460;25.744;2023-05-20T09:06:18;31.73;;;14.38;;
38693;SDS011;24447;43.460;25.744;2023-05-20T09:08:44;30.58;;;12.88;;
38693;SDS011;24447;43.460;25.744;2023-05-20T09:11:11;27.58;;;12.38;;
38693;SDS011;24447;43.460;25.744;2023-05-20T09:13:37;23.75;;;11.38;;
38693;SDS011;24447;43.460;25.744;2023-05-20T09:16:03;24.92;;;10.98;;
38693;SDS011;24447;43.460;25.744;2023-05-20T09:18:30;24.73;;;11.93;;
38693;SDS011;24447;43.460;25.744;2023-05-20T09:20:56;23.30;;;11.00;;
38693;SDS011;24447;43.460;25.744;2023-05-20T09:23:22;20.98;;;10.15;;
38693;SDS011;24447;43.460;25.744;2023-05-20T09:25:51;24.45;;;11.18;;
38693;SDS011;24447;43.460;25.744;2023-05-20T09:28:18;21.63;;;9.55;;
38693;SDS011;24447;43.460;25.744;2023-05-20T09:30:47;20.50;;;9.15;;
38693;SDS011;24447;43.460;25.744;2023-05-20T09:33:15;21.83;;;8.57;;
38693;SDS011;24447;43.460;25.744;2023-05-20T09:35:42;21.42;;;9.45;;
38693;SDS011;24447;43.460;25.744;2023-05-20T09:38:07;21.13;;;10.38;;
38693;SDS011;24447;43.460;25.744;2023-05-20T09:40:34;18.85;;;8.27;;
38693;SDS011;24447;43.460;25.744;2023-05-20T09:43:04;20.10;;;9.20;;
38693;SDS011;24447;43.460;25.744;2023-05-20T09:45:31;17.67;;;8.00;;
38693;SDS011;24447;43.460;25.744;2023-05-20T09:47:58;25.83;;;10.77;;
38693;SDS011;24447;43.460;25.744;2023-05-20T09:50:24;23.23;;;9.52;;
38693;SDS011;24447;43.460;25.744;2023-05-20T09:52:50;20.20;;;8.70;;
38693;SDS011;24447;43.460;25.744;2023-05-20T09:55:18;24.65;;;8.98;;
38693;SDS011;24447;43.460;25.744;2023-05-20T09:57:46;21.83;;;9.63;;
38693;SDS011;24447;43.460;25.744;2023-05-20T10:00:12;21.67;;;9.43;;
38693;SDS011;24447;43.460;25.744;2023-05-20T10:02:45;18.02;;;8.27;;
38693;SDS011;24447;43.460;25.744;2023-05-20T10:05:22;16.58;;;7.88;;
38693;SDS011;24447;43.460;25.744;2023-05-20T10:21:01;16.50;;;7.32;;
38693;SDS011;24447;43.460;25.744;2023-05-20T10:23:28;17.00;;;5.95;;
38693;SDS011;24447;43.460;25.744;2023-05-20T10:25:55;16.98;;;5.97;;
38693;SDS011;24447;43.460;25.744;2023-05-20T10:28:35;14.00;;;5.60;;
38693;SDS011;24447;43.460;25.744;2023-05-20T10:31:02;12.60;;;6.18;;
38693;SDS011;24447;43.460;25.744;2023-05-20T10:33:41;11.82;;;5.40;;
38693;SDS011;24447;43.460;25.744;2023-05-20T10:36:08;16.17;;;5.70;;
38693;SDS011;24447;43.460;25.744;2023-05-20T10:38:34;13.13;;;6.47;;
38693;SDS011;24447;43.460;25.744;2023-05-20T10:41:09;15.52;;;6.57;;
38693;SDS011;24447;43.460;25.744;2023-05-20T10:43:38;17.65;;;7.22;;
38693;SDS011;24447;43.460;25.744;2023-05-20T10:46:04;12.45;;;5.80;;
38693;SDS011;24447;43.460;25.744;2023-05-20T10:48:30;13.30;;;6.10;;
38693;SDS011;24447;43.460;25.744;2023-05-20T10:51:01;18.02;;;6.55;;
38693;SDS011;24447;43.460;25.744;2023-05-20T10:53:37;13.63;;;5.70;;
38693;SDS011;24447;43.460;25.744;2023-05-20T10:56:04;15.52;;;5.95;;
38693;SDS011;24447;43.460;25.744;2023-05-20T10:58:37;15.05;;;6.35;;
38693;SDS011;24447;43.460;25.744;2023-05-20T11:01:03;16.15;;;5.82;;
38693;SDS011;24447;43.460;25.744;2023-05-20T11:03:29;12.07;;;6.03;;
38693;SDS011;24447;43.460;25.744;2023-05-20T11:05:55;13.30;;;6.75;;
38693;SDS011;24447;43.460;25.744;2023-05-20T11:08:21;12.02;;;5.45;;
38693;SDS011;24447;43.460;25.744;2023-05-20T11:10:47;16.30;;;6.60;;
38693;SDS011;24447;43.460;25.744;2023-05-20T11:13:13;13.40;;;5.75;;
38693;SDS011;24447;43.460;25.744;2023-05-20T11:15:39;12.10;;;5.97;;
38693;SDS011;24447;43.460;25.744;2023-05-20T11:18:05;10.05;;;5.93;;
38693;SDS011;24447;43.460;25.744;2023-05-20T11:20:31;15.20;;;5.90;;
38693;SDS011;24447;43.460;25.744;2023-05-20T11:22:59;11.68;;;5.97;;
38693;SDS011;24447;43.460;25.744;2023-05-20T11:25:26;13.63;;;6.38;;
38693;SDS011;24447;43.460;25.744;2023-05-20T11:27:52;12.93;;;5.72;;
38693;SDS011;24447;43.460;25.744;2023-05-20T11:30:18;16.48;;;6.35;;
38693;SDS011;24447;43.460;25.744;2023-05-20T11:33:02;14.45;;;5.03;;
38693;SDS011;24447;43.460;25.744;2023-05-20T11:35:29;16.33;;;5.95;;
38693;SDS011;24447;43.460;25.744;2023-05-20T11:38:01;14.27;;;5.97;;
38693;SDS011;24447;43.460;25.744;2023-05-20T11:40:28;12.18;;;5.47;;
38693;SDS011;24447;43.460;25.744;2023-05-20T11:42:56;10.95;;;4.78;;
38693;SDS011;24447;43.460;25.744;2023-05-20T11:45:23;13.35;;;5.65;;
38693;SDS011;24447;43.460;25.744;2023-05-20T11:48:02;15.50;;;6.15;;
38693;SDS011;24447;43.460;25.744;2023-05-20T11:50:33;14.88;;;5.82;;
38693;SDS011;24447;43.460;25.744;2023-05-20T11:53:03;13.40;;;5.07;;
38693;SDS011;24447;43.460;25.744;2023-05-20T11:55:30;11.93;;;5.45;;
38693;SDS011;24447;43.460;25.744;2023-05-20T11:58:02;12.88;;;5.32;;
38693;SDS011;24447;43.460;25.744;2023-05-20T12:00:31;13.05;;;5.05;;
38693;SDS011;24447;43.460;25.744;2023-05-20T12:02:56;11.32;;;5.47;;
38693;SDS011;24447;43.460;25.744;2023-05-20T12:05:22;13.93;;;5.18;;
38693;SDS011;24447;43.460;25.744;2023-05-20T12:07:48;12.93;;;5.03;;
38693;SDS011;24447;43.460;25.744;2023-05-20T12:10:14;12.75;;;6.50;;
38693;SDS011;24447;43.460;25.744;2023-05-20T12:12:40;12.85;;;5.15;;
38693;SDS011;24447;43.460;25.744;2023-05-20T12:15:08;16.58;;;5.80;;
38693;SDS011;24447;43.460;25.744;2023-05-20T12:17:43;13.65;;;6.03;;
38693;SDS011;24447;43.460;25.744;2023-05-20T12:20:16;11.75;;;5.72;;
38693;SDS011;24447;43.460;25.744;2023-05-20T12:22:43;13.77;;;6.60;;
38693;SDS011;24447;43.460;25.744;2023-05-20T12:25:13;11.95;;;5.43;;
38693;SDS011;24447;43.460;25.744;2023-05-20T12:27:40;11.77;;;5.10;;
38693;SDS011;24447;43.460;25.744;2023-05-20T12:30:07;11.05;;;4.68;;
38693;SDS011;24447;43.460;25.744;2023-05-20T12:32:34;12.02;;;5.43;;
38693;SDS011;24447;43.460;25.744;2023-05-20T12:35:03;12.63;;;5.77;;
38693;SDS011;24447;43.460;25.744;2023-05-20T12:37:29;16.15;;;6.25;;
38693;SDS011;24447;43.460;25.744;2023-05-20T12:39:55;12.15;;;5.55;;
38693;SDS011;24447;43.460;25.744;2023-05-20T12:42:21;11.10;;;5.40;;
38693;SDS011;24447;43.460;25.744;2023-05-20T12:44:47;14.98;;;6.35;;
38693;SDS011;24447;43.460;25.744;2023-05-20T12:47:13;11.38;;;5.80;;
38693;SDS011;24447;43.460;25.744;2023-05-20T12:49:39;15.23;;;6.15;;
38693;SDS011;24447;43.460;25.744;2023-05-20T12:52:05;15.98;;;5.53;;
38693;SDS011;24447;43.460;25.744;2023-05-20T12:54:31;13.85;;;6.00;;
38693;SDS011;24447;43.460;25.744;2023-05-20T12:56:57;10.68;;;5.38;;
38693;SDS011;24447;43.460;25.744;2023-05-20T12:59:23;13.65;;;6.13;;
38693;SDS011;24447;43.460;25.744;2023-05-20T13:01:49;10.95;;;5.65;;
38693;SDS011;24447;43.460;25.744;2023-05-20T13:04:15;10.52;;;5.10;;
38693;SDS011;24447;43.460;25.744;2023-05-20T13:06:41;13.60;;;5.65;;
38693;SDS011;24447;43.460;25.744;2023-05-20T13:09:07;12.60;;;5.53;;
38693;SDS011;24447;43.460;25.744;2023-05-20T13:11:33;14.68;;;6.53;;
38693;SDS011;24447;43.460;25.744;2023-05-20T13:13:59;11.85;;;5.38;;
38693;SDS011;24447;43.460;25.744;2023-05-20T13:16:25;15.05;;;5.40;;
38693;SDS011;24447;43.460;25.744;2023-05-20T13:18:51;12.93;;;5.13;;
38693;SDS011;24447;43.460;25.744;2023-05-20T13:21:17;14.50;;;6.00;;
38693;SDS011;24447;43.460;25.744;2023-05-20T13:23:42;13.60;;;5.03;;
38693;SDS011;24447;43.460;25.744;2023-05-20T13:26:08;10.80;;;5.13;;
38693;SDS011;24447;43.460;25.744;2023-05-20T13:28:34;14.55;;;5.43;;
38693;SDS011;24447;43.460;25.744;2023-05-20T13:31:01;17.05;;;6.63;;
38693;SDS011;24447;43.460;25.744;2023-05-20T13:33:27;10.40;;;4.82;;
38693;SDS011;24447;43.460;25.744;2023-05-20T13:35:53;13.50;;;5.40;;
38693;SDS011;24447;43.460;25.744;2023-05-20T13:38:19;11.18;;;5.53;;
38693;SDS011;24447;43.460;25.744;2023-05-20T13:40:45;12.95;;;6.22;;
38693;SDS011;24447;43.460;25.744;2023-05-20T13:43:11;12.35;;;5.63;;
38693;SDS011;24447;43.460;25.744;2023-05-20T13:45:37;13.15;;;5.38;;
38693;SDS011;24447;43.460;25.744;2023-05-20T13:48:02;11.63;;;5.25;;
38693;SDS011;24447;43.460;25.744;2023-05-20T13:50:29;12.52;;;6.22;;
38693;SDS011;24447;43.460;25.744;2023-05-20T13:52:54;7.72;;;3.40;;
38693;SDS011;24447;43.460;25.744;2023-05-20T13:55:20;5.28;;;3.33;;
38693;SDS011;24447;43.460;25.744;2023-05-20T13:57:46;6.18;;;3.50;;
38693;SDS011;24447;43.460;25.744;2023-05-20T14:00:12;10.23;;;4.03;;
38693;SDS011;24447;43.460;25.744;2023-05-20T14:02:39;11.30;;;3.60;;
38693;SDS011;24447;43.460;25.744;2023-05-20T14:05:05;7.80;;;3.78;;
38693;SDS011;24447;43.460;25.744;2023-05-20T14:07:31;7.60;;;3.88;;
38693;SDS011;24447;43.460;25.744;2023-05-20T14:09:57;7.20;;;3.25;;
38693;SDS011;24447;43.460;25.744;2023-05-20T14:12:23;11.40;;;3.88;;
38693;SDS011;24447;43.460;25.744;2023-05-20T14:14:49;11.50;;;4.57;;
38693;SDS011;24447;43.460;25.744;2023-05-20T14:17:15;14.82;;;5.35;;
38693;SDS011;24447;43.460;25.744;2023-05-20T14:19:41;12.70;;;5.20;;
38693;SDS011;24447;43.460;25.744;2023-05-20T14:22:07;18.25;;;5.60;;
38693;SDS011;24447;43.460;25.744;2023-05-20T14:24:33;25.92;;;6.93;;
38693;SDS011;24447;43.460;25.744;2023-05-20T14:26:59;16.83;;;6.30;;
38693;SDS011;24447;43.460;25.744;2023-05-20T14:29:25;14.18;;;6.60;;
38693;SDS011;24447;43.460;25.744;2023-05-20T14:31:51;19.05;;;8.20;;
38693;SDS011;24447;43.460;25.744;2023-05-20T14:34:17;15.35;;;7.15;;